Fredericia, Denmark
Current Conditions -  °F | °C
As of 2:50 AM on Tuesday 25 Nov 2014 (Local Time) from EKVD Reporting Station
NA  
Wind Chill: 36°   Ceiling: NA
Heat Index: 41°   Visibility: NA
Dew Point: 39°   Wind: 7mph
Humidity: 93%   Direction: 260°W
Pressure: 30.24"   Gusts: NA
Location:  55.57°N, 9.75°E
Report Text: EKVD 250150Z AUTO 26006KT //// ///////// 05/04 Q1024
Loading
Personal Weather Stations






























Interactive Weather Map New forecast layout! Learn more

10-Day Weather Forecast

Advertisements
Track Severe Weather on mobile